Time;durP1;ratioP1;P1;durP2;ratioP2;P2;SDS_P1;SDS_P2;PMS_P1;PMS_P2;Temp;Humidity;BMP_temperature;BMP_pressure;BME280_temperature;BME280_humidity;BME280_pressure;Samples;Min_cycle;Max_cycle;Signal;HPM_P1;HPM_P2
2022/10/21 00:00:06;;;;;;;0.40;0.20;;;;;;;;;;4194571;28;20052;-48
2022/10/21 00:02:14;;;;;;;0.20;0.20;;;;;;;;;;4178283;28;20579;-44
2022/10/21 00:04:15;;;;;;;0.45;0.10;;;;;;;;;;4178793;28;20507;-44
2022/10/21 00:06:17;;;;;;;0.60;0.20;;;;;;;;;;4179176;28;20083;-48
2022/10/21 00:08:19;;;;;;;1.40;0.17;;;;;;;;;;4179482;28;20071;-45
2022/10/21 00:10:20;;;;;;;0.20;0.13;;;;;;;;;;4164542;28;20111;-48
2022/10/21 00:12:22;;;;;;;0.73;0.20;;;;;;;;;;4196110;28;20060;-45
2022/10/21 00:14:24;;;;;;;0.45;0.20;;;;;;;;;;4195869;28;20094;-46
2022/10/21 00:16:25;;;;;;;0.20;0.20;;;;;;;;;;4183387;28;20126;-43
2022/10/21 00:18:27;;;;;;;0.25;0.20;;;;;;;;;;4193180;28;20110;-46
2022/10/21 00:20:28;;;;;;;3.03;0.30;;;;;;;;;;4195445;28;20541;-47
2022/10/21 00:22:30;;;;;;;0.30;0.17;;;;;;;;;;4187497;28;20057;-48
2022/10/21 00:24:31;;;;;;;0.03;0.00;;;;;;;;;;4190910;28;20057;-49
2022/10/21 00:26:33;;;;;;;0.20;0.10;;;;;;;;;;4195606;28;20056;-48
2022/10/21 00:28:34;;;;;;;0.40;0.20;;;;;;;;;;4191418;28;20064;-47
2022/10/21 00:30:35;;;;;;;0.20;0.20;;;;;;;;;;4177963;28;20053;-45
2022/10/21 00:32:37;;;;;;;0.57;0.40;;;;;;;;;;4189729;28;20052;-47
2022/10/21 00:34:38;;;;;;;0.10;0.10;;;;;;;;;;4181447;28;20114;-44
2022/10/21 00:36:39;;;;;;;0.73;0.32;;;;;;;;;;4181580;28;20057;-47
2022/10/21 00:38:43;;;;;;;0.50;0.15;;;;;;;;;;4182321;28;20119;-47
2022/10/21 00:40:44;;;;;;;0.77;0.30;;;;;;;;;;4181178;28;20056;-46
2022/10/21 00:42:45;;;;;;;0.10;0.10;;;;;;;;;;4181533;28;20053;-47
2022/10/21 00:45:20;;;;;;;0.43;0.10;;;;;;;;;;4187327;28;20470;-46
2022/10/21 00:47:22;;;;;;;0.15;0.10;;;;;;;;;;4155555;28;20499;-47
2022/10/21 00:49:30;;;;;;;0.32;0.10;;;;;;;;;;4183536;28;20451;-47
2022/10/21 00:51:32;;;;;;;0.40;0.20;;;;;;;;;;4186438;28;20052;-45
2022/10/21 00:53:36;;;;;;;0.52;0.15;;;;;;;;;;4199396;28;20052;-44
2022/10/21 00:55:40;;;;;;;0.10;0.10;;;;;;;;;;4198877;28;20060;-47
2022/10/21 00:57:41;;;;;;;0.45;0.28;;;;;;;;;;4183593;28;20520;-47
2022/10/21 00:59:48;;;;;;;0.32;0.10;;;;;;;;;;4198651;28;20053;-47
2022/10/21 01:01:50;;;;;;;0.65;0.40;;;;;;;;;;4191029;28;20103;-43
2022/10/21 01:03:51;;;;;;;0.20;0.20;;;;;;;;;;4194307;28;20098;-45
2022/10/21 01:05:54;;;;;;;0.28;0.10;;;;;;;;;;4196170;28;20060;-46
2022/10/21 01:07:55;;;;;;;0.30;0.10;;;;;;;;;;4197207;28;20056;-48
2022/10/21 01:09:56;;;;;;;0.47;0.20;;;;;;;;;;4190185;28;20098;-46
2022/10/21 01:12:00;;;;;;;0.10;0.10;;;;;;;;;;4192126;28;20174;-46
2022/10/21 01:14:19;;;;;;;0.30;0.10;;;;;;;;;;4166984;28;20111;-41
2022/10/21 01:16:40;;;;;;;0.20;0.10;;;;;;;;;;4191534;28;20679;-47
2022/10/21 01:19:03;;;;;;;0.22;0.10;;;;;;;;;;4157075;28;20454;-43
2022/10/21 01:21:35;;;;;;;0.30;0.20;;;;;;;;;;4180649;28;20049;-45
2022/10/21 01:23:51;;;;;;;0.30;0.20;;;;;;;;;;4186044;28;20060;-47
2022/10/21 01:25:57;;;;;;;0.13;0.13;;;;;;;;;;4193198;28;20114;-44
2022/10/21 01:28:20;;;;;;;0.20;0.10;;;;;;;;;;4188949;28;20527;-44
2022/10/21 01:30:44;;;;;;;0.32;0.10;;;;;;;;;;4191537;28;20114;-46
2022/10/21 01:32:57;;;;;;;0.35;0.20;;;;;;;;;;4188010;28;20049;-49
2022/10/21 01:35:21;;;;;;;0.45;0.20;;;;;;;;;;4196944;28;20071;-45
2022/10/21 01:37:34;;;;;;;0.10;0.10;;;;;;;;;;4180402;28;20053;-46
2022/10/21 01:39:42;;;;;;;0.30;0.20;;;;;;;;;;4197080;28;20052;-44
2022/10/21 01:41:59;;;;;;;0.32;0.17;;;;;;;;;;4198332;28;20060;-46
2022/10/21 01:44:10;;;;;;;0.25;0.20;;;;;;;;;;4183887;28;20052;-45
2022/10/21 01:46:15;;;;;;;0.08;0.05;;;;;;;;;;4188439;28;20056;-43
2022/10/21 01:48:19;;;;;;;0.32;0.20;;;;;;;;;;4181369;28;20338;-47
2022/10/21 01:50:25;;;;;;;0.70;0.30;;;;;;;;;;4192763;28;20217;-47
2022/10/21 01:52:26;;;;;;;0.28;0.10;;;;;;;;;;4192818;28;20057;-46
2022/10/21 01:54:42;;;;;;;0.70;0.20;;;;;;;;;;4163577;28;20172;-45
2022/10/21 01:56:45;;;;;;;0.20;0.10;;;;;;;;;;4180885;28;20057;-46
2022/10/21 01:58:47;;;;;;;0.52;0.10;;;;;;;;;;4159985;28;20481;-46
2022/10/21 02:00:50;;;;;;;0.50;0.20;;;;;;;;;;4179890;28;20057;-45
2022/10/21 02:02:51;;;;;;;0.77;0.20;;;;;;;;;;4180874;28;20056;-46
2022/10/21 02:04:54;;;;;;;0.55;0.20;;;;;;;;;;4193744;28;20056;-43
2022/10/21 02:06:56;;;;;;;0.20;0.20;;;;;;;;;;4208461;28;20129;-44
2022/10/21 02:08:57;;;;;;;0.30;0.30;;;;;;;;;;4197622;28;20114;-46
2022/10/21 02:11:01;;;;;;;0.10;0.10;;;;;;;;;;4196233;28;20061;-46
2022/10/21 02:13:04;;;;;;;0.20;0.15;;;;;;;;;;4195510;28;20056;-47
2022/10/21 02:15:07;;;;;;;0.50;0.20;;;;;;;;;;4196393;28;20060;-46
2022/10/21 02:17:10;;;;;;;0.52;0.20;;;;;;;;;;4197183;28;20057;-45
2022/10/21 02:19:17;;;;;;;0.20;0.20;;;;;;;;;;4196265;28;20048;-44
2022/10/21 02:21:20;;;;;;;0.20;0.10;;;;;;;;;;4197266;28;20063;-44
2022/10/21 02:23:26;;;;;;;0.20;0.20;;;;;;;;;;4197314;28;20557;-44
2022/10/21 02:25:32;;;;;;;0.30;0.20;;;;;;;;;;4196677;28;20056;-44
2022/10/21 02:27:33;;;;;;;0.20;0.15;;;;;;;;;;4206839;28;20059;-45
2022/10/21 02:29:39;;;;;;;0.80;0.28;;;;;;;;;;4197281;28;20053;-44
2022/10/21 02:32:01;;;;;;;0.40;0.20;;;;;;;;;;4183526;28;20503;-44
2022/10/21 02:34:18;;;;;;;0.10;0.10;;;;;;;;;;4197269;28;20060;-44
2022/10/21 02:37:00;;;;;;;0.10;0.10;;;;;;;;;;4178365;28;20052;-44
2022/10/21 02:39:06;;;;;;;0.20;0.15;;;;;;;;;;4165635;28;20079;-44
2022/10/21 02:41:10;;;;;;;0.20;0.20;;;;;;;;;;4196546;28;20053;-44
2022/10/21 02:43:15;;;;;;;0.20;0.20;;;;;;;;;;4196902;28;20048;-44
2022/10/21 02:45:17;;;;;;;0.38;0.20;;;;;;;;;;4196937;28;20060;-44
2022/10/21 02:47:18;;;;;;;1.02;0.20;;;;;;;;;;4195149;28;20049;-44
2022/10/21 02:49:20;;;;;;;1.65;0.20;;;;;;;;;;4195554;28;20053;-46
2022/10/21 02:51:21;;;;;;;0.50;0.28;;;;;;;;;;4184470;28;20055;-46
2022/10/21 02:53:22;;;;;;;0.55;0.20;;;;;;;;;;4189432;28;20114;-44
2022/10/21 02:55:24;;;;;;;0.35;0.17;;;;;;;;;;4180404;28;20064;-47
2022/10/21 02:57:25;;;;;;;0.45;0.20;;;;;;;;;;4193518;28;20423;-48
2022/10/21 02:59:27;;;;;;;0.10;0.10;;;;;;;;;;4191830;28;20095;-46
2022/10/21 03:01:28;;;;;;;0.43;0.25;;;;;;;;;;4186663;28;20484;-44
2022/10/21 03:03:29;;;;;;;0.43;0.30;;;;;;;;;;4186591;28;20103;-43
2022/10/21 03:05:31;;;;;;;0.40;0.20;;;;;;;;;;4192098;28;20427;-44
2022/10/21 03:07:33;;;;;;;0.30;0.25;;;;;;;;;;4182282;28;20060;-44
2022/10/21 03:09:34;;;;;;;0.55;0.10;;;;;;;;;;4196893;28;20048;-46
2022/10/21 03:11:35;;;;;;;0.20;0.10;;;;;;;;;;4187095;28;20102;-44
2022/10/21 03:13:37;;;;;;;0.20;0.20;;;;;;;;;;4180248;28;20061;-44
2022/10/21 03:15:38;;;;;;;0.40;0.25;;;;;;;;;;4179818;28;20060;-45
2022/10/21 03:17:39;;;;;;;0.43;0.20;;;;;;;;;;4179700;28;20613;-44
2022/10/21 03:19:41;;;;;;;0.25;0.10;;;;;;;;;;4180330;28;20045;-46
2022/10/21 03:21:42;;;;;;;0.30;0.10;;;;;;;;;;4173704;28;20112;-47
2022/10/21 03:23:43;;;;;;;0.35;0.25;;;;;;;;;;4196290;28;20074;-46
2022/10/21 03:25:45;;;;;;;0.25;0.20;;;;;;;;;;4196667;28;20059;-46
2022/10/21 03:27:48;;;;;;;0.20;0.20;;;;;;;;;;4188972;28;20123;-45
2022/10/21 03:29:50;;;;;;;0.65;0.30;;;;;;;;;;4180111;28;20053;-46
2022/10/21 03:31:51;;;;;;;0.10;0.10;;;;;;;;;;4192729;28;20053;-46
2022/10/21 03:33:53;;;;;;;0.40;0.20;;;;;;;;;;4196261;28;20093;-47
2022/10/21 03:35:54;;;;;;;0.30;0.20;;;;;;;;;;4196110;28;20126;-45
2022/10/21 03:37:55;;;;;;;0.40;0.17;;;;;;;;;;4186588;28;20065;-43
2022/10/21 03:39:57;;;;;;;0.20;0.10;;;;;;;;;;4178377;28;20122;-44
2022/10/21 03:41:58;;;;;;;0.20;0.17;;;;;;;;;;4192675;28;20098;-46
2022/10/21 03:43:59;;;;;;;0.20;0.17;;;;;;;;;;4195185;28;20090;-46
2022/10/21 03:46:01;;;;;;;0.28;0.20;;;;;;;;;;4179561;28;20163;-46
2022/10/21 03:48:02;;;;;;;0.28;0.20;;;;;;;;;;4179188;28;20492;-46
2022/10/21 03:50:06;;;;;;;0.10;0.10;;;;;;;;;;4180644;28;20390;-46
2022/10/21 03:52:07;;;;;;;0.32;0.30;;;;;;;;;;4194975;28;20056;-44
2022/10/21 03:54:08;;;;;;;0.22;0.20;;;;;;;;;;4188069;28;20048;-46
2022/10/21 03:56:10;;;;;;;0.20;0.13;;;;;;;;;;4178755;28;20061;-43
2022/10/21 03:58:12;;;;;;;0.20;0.20;;;;;;;;;;4178442;28;20123;-44
2022/10/21 04:00:13;;;;;;;0.20;0.20;;;;;;;;;;4180757;28;20558;-45
2022/10/21 04:02:15;;;;;;;0.20;0.10;;;;;;;;;;4177344;28;20472;-43
2022/10/21 04:04:16;;;;;;;0.10;0.10;;;;;;;;;;4189478;28;20056;-45
2022/10/21 04:06:18;;;;;;;0.35;0.25;;;;;;;;;;4195459;28;20106;-47
2022/10/21 04:08:19;;;;;;;0.15;0.15;;;;;;;;;;4192944;28;20049;-45
2022/10/21 04:10:20;;;;;;;0.25;0.13;;;;;;;;;;4183478;28;20170;-46
2022/10/21 04:12:21;;;;;;;0.22;0.20;;;;;;;;;;4195511;28;20087;-44
2022/10/21 04:14:23;;;;;;;0.40;0.20;;;;;;;;;;4183430;28;20053;-44
2022/10/21 04:16:24;;;;;;;0.40;0.20;;;;;;;;;;4177231;28;20103;-44
2022/10/21 04:18:27;;;;;;;0.10;0.10;;;;;;;;;;4184475;28;20056;-44
2022/10/21 04:20:28;;;;;;;0.35;0.20;;;;;;;;;;4187282;28;20060;-44
2022/10/21 04:22:29;;;;;;;0.13;0.13;;;;;;;;;;4190654;28;20052;-44
2022/10/21 04:24:31;;;;;;;0.38;0.20;;;;;;;;;;4180840;28;20060;-46
2022/10/21 04:26:32;;;;;;;0.30;0.10;;;;;;;;;;4178949;28;20060;-46
2022/10/21 04:28:34;;;;;;;0.57;0.20;;;;;;;;;;4179180;28;20566;-46
2022/10/21 04:30:35;;;;;;;0.10;0.10;;;;;;;;;;4180594;28;20053;-43
2022/10/21 04:32:37;;;;;;;0.20;0.20;;;;;;;;;;4193779;28;20052;-43
2022/10/21 04:34:38;;;;;;;0.10;0.10;;;;;;;;;;4181155;28;20049;-44
2022/10/21 04:36:40;;;;;;;0.28;0.17;;;;;;;;;;4187604;28;20064;-44
2022/10/21 04:38:41;;;;;;;0.25;0.20;;;;;;;;;;4178958;28;20073;-44
2022/10/21 04:40:43;;;;;;;0.30;0.17;;;;;;;;;;4179066;28;20049;-45
2022/10/21 04:42:48;;;;;;;0.30;0.20;;;;;;;;;;4178971;28;20049;-44
2022/10/21 04:44:49;;;;;;;0.40;0.20;;;;;;;;;;4184646;28;20100;-44
2022/10/21 04:46:51;;;;;;;0.30;0.10;;;;;;;;;;4186307;28;20087;-44
2022/10/21 04:48:52;;;;;;;0.38;0.20;;;;;;;;;;4191925;28;20060;-44
2022/10/21 04:50:54;;;;;;;0.10;0.10;;;;;;;;;;4188880;28;20052;-43
2022/10/21 04:52:55;;;;;;;0.28;0.20;;;;;;;;;;4179321;28;20504;-43
2022/10/21 04:54:57;;;;;;;0.35;0.20;;;;;;;;;;4161947;28;20092;-44
2022/10/21 04:56:58;;;;;;;0.20;0.20;;;;;;;;;;4179732;28;20061;-44
2022/10/21 04:58:59;;;;;;;0.30;0.20;;;;;;;;;;4179169;28;20057;-44
2022/10/21 05:01:00;;;;;;;0.65;0.30;;;;;;;;;;4183904;28;20114;-45
2022/10/21 05:03:02;;;;;;;0.95;0.20;;;;;;;;;;4185279;28;20057;-43
2022/10/21 05:05:04;;;;;;;0.40;0.20;;;;;;;;;;4176954;28;20058;-43
2022/10/21 05:07:05;;;;;;;0.40;0.25;;;;;;;;;;4176322;28;20060;-42
2022/10/21 05:09:06;;;;;;;0.10;0.10;;;;;;;;;;4192142;28;20056;-43
2022/10/21 05:11:08;;;;;;;0.20;0.20;;;;;;;;;;4183259;28;20450;-44
2022/10/21 05:13:09;;;;;;;0.50;0.20;;;;;;;;;;4193100;28;20412;-43
2022/10/21 05:15:12;;;;;;;0.82;0.50;;;;;;;;;;4180761;28;20056;-43
2022/10/21 05:17:14;;;;;;;0.95;0.32;;;;;;;;;;4190304;28;20049;-43
2022/10/21 05:19:15;;;;;;;0.20;0.20;;;;;;;;;;4183798;28;20052;-44
2022/10/21 05:21:16;;;;;;;0.82;0.30;;;;;;;;;;4193518;28;20384;-45
2022/10/21 05:23:18;;;;;;;0.20;0.20;;;;;;;;;;4196384;28;20557;-44
2022/10/21 05:25:19;;;;;;;0.77;0.30;;;;;;;;;;4193299;28;20094;-43
2022/10/21 05:27:20;;;;;;;0.32;0.20;;;;;;;;;;4179937;28;20469;-43
2022/10/21 05:29:21;;;;;;;1.55;0.28;;;;;;;;;;4179957;28;20052;-43
2022/10/21 05:31:23;;;;;;;0.40;0.22;;;;;;;;;;4179463;28;20118;-43
2022/10/21 05:33:25;;;;;;;0.40;0.30;;;;;;;;;;4179646;28;20060;-43
2022/10/21 05:35:26;;;;;;;0.40;0.20;;;;;;;;;;4183354;28;20114;-45
2022/10/21 05:37:27;;;;;;;0.50;0.28;;;;;;;;;;4188911;28;20109;-44
2022/10/21 05:39:28;;;;;;;0.30;0.30;;;;;;;;;;4179502;28;20083;-44
2022/10/21 05:41:30;;;;;;;0.68;0.40;;;;;;;;;;4194652;28;20056;-44
2022/10/21 05:43:31;;;;;;;0.60;0.40;;;;;;;;;;4194251;28;20114;-43
2022/10/21 05:45:32;;;;;;;0.20;0.20;;;;;;;;;;4190279;28;20480;-44
2022/10/21 05:47:33;;;;;;;0.60;0.30;;;;;;;;;;4193895;28;20052;-43
2022/10/21 05:49:35;;;;;;;0.20;0.20;;;;;;;;;;4194170;28;20049;-44
2022/10/21 05:51:36;;;;;;;0.52;0.30;;;;;;;;;;4178837;28;20107;-43
2022/10/21 05:53:38;;;;;;;0.60;0.30;;;;;;;;;;4183688;28;20064;-43
2022/10/21 05:55:39;;;;;;;0.40;0.30;;;;;;;;;;4196027;28;20061;-43
2022/10/21 05:57:41;;;;;;;0.45;0.30;;;;;;;;;;4184144;28;20123;-43
2022/10/21 05:59:42;;;;;;;0.50;0.28;;;;;;;;;;4178570;28;20083;-46
2022/10/21 06:01:44;;;;;;;0.85;0.40;;;;;;;;;;4182278;28;20063;-46
2022/10/21 06:03:45;;;;;;;0.60;0.40;;;;;;;;;;4195826;28;20502;-46
2022/10/21 06:05:46;;;;;;;0.73;0.40;;;;;;;;;;4185206;28;20463;-45
2022/10/21 06:07:47;;;;;;;0.80;0.35;;;;;;;;;;4178634;28;20114;-43
2022/10/21 06:09:49;;;;;;;0.75;0.40;;;;;;;;;;4182195;28;20357;-45
2022/10/21 06:11:50;;;;;;;0.55;0.40;;;;;;;;;;4195417;28;20110;-43
2022/10/21 06:13:52;;;;;;;0.73;0.32;;;;;;;;;;4191091;28;20060;-45
2022/10/21 06:15:53;;;;;;;2.75;0.50;;;;;;;;;;4182555;28;20064;-44
2022/10/21 06:17:54;;;;;;;0.90;0.50;;;;;;;;;;4181245;28;20056;-43
2022/10/21 06:19:55;;;;;;;0.95;0.50;;;;;;;;;;4198187;28;20048;-45
2022/10/21 06:21:57;;;;;;;1.90;0.50;;;;;;;;;;4193856;28;20068;-43
2022/10/21 06:23:58;;;;;;;0.90;0.45;;;;;;;;;;4184420;28;20056;-43
2022/10/21 06:26:09;;;;;;;0.50;0.40;;;;;;;;;;4185256;28;20436;-44
2022/10/21 06:28:10;;;;;;;0.77;0.52;;;;;;;;;;4184755;28;20094;-45
2022/10/21 06:30:11;;;;;;;0.80;0.30;;;;;;;;;;4177594;28;20057;-43
2022/10/21 06:32:13;;;;;;;1.00;0.45;;;;;;;;;;4190239;28;20065;-43
2022/10/21 06:34:15;;;;;;;0.63;0.50;;;;;;;;;;4185645;28;20895;-43
2022/10/21 06:36:16;;;;;;;0.50;0.32;;;;;;;;;;4192970;28;20095;-44
2022/10/21 06:38:18;;;;;;;2.60;0.60;;;;;;;;;;4195140;28;20469;-45
2022/10/21 06:40:19;;;;;;;1.58;0.50;;;;;;;;;;4185565;28;20049;-54
2022/10/21 06:42:20;;;;;;;1.00;0.50;;;;;;;;;;4162436;28;20068;-45
2022/10/21 06:44:22;;;;;;;1.13;0.52;;;;;;;;;;4170745;28;20056;-41
2022/10/21 06:46:23;;;;;;;2.13;0.60;;;;;;;;;;4177637;28;20060;-40
2022/10/21 06:48:25;;;;;;;0.73;0.40;;;;;;;;;;4180817;28;20557;-43
2022/10/21 06:50:26;;;;;;;0.82;0.50;;;;;;;;;;4181929;28;20057;-44
2022/10/21 06:52:29;;;;;;;2.10;0.85;;;;;;;;;;4185656;28;20113;-44
2022/10/21 06:54:31;;;;;;;3.15;0.65;;;;;;;;;;4178535;28;20480;-43
2022/10/21 06:56:32;;;;;;;1.05;0.60;;;;;;;;;;4179206;28;20090;-40
2022/10/21 06:58:35;;;;;;;1.30;0.52;;;;;;;;;;4179579;28;21497;-43
2022/10/21 07:00:36;;;;;;;1.48;0.50;;;;;;;;;;4166321;28;20063;-43
2022/10/21 07:02:37;;;;;;;0.82;0.47;;;;;;;;;;4159990;28;20061;-41
2022/10/21 07:04:43;;;;;;;1.85;0.60;;;;;;;;;;4172148;28;20133;-44
2022/10/21 07:06:45;;;;;;;1.48;0.75;;;;;;;;;;4170693;28;20497;-43
2022/10/21 07:08:46;;;;;;;0.95;0.70;;;;;;;;;;4178456;28;20640;-44
2022/10/21 07:10:47;;;;;;;3.13;0.60;;;;;;;;;;4184772;28;20419;-42
2022/10/21 07:12:49;;;;;;;2.60;0.82;;;;;;;;;;4180570;28;20052;-46
2022/10/21 07:14:50;;;;;;;2.88;0.77;;;;;;;;;;4185008;28;20349;-44
2022/10/21 07:16:52;;;;;;;4.80;0.55;;;;;;;;;;4181367;28;20106;-43
2022/10/21 07:18:54;;;;;;;2.60;0.68;;;;;;;;;;4182068;28;20561;-46
2022/10/21 07:21:06;;;;;;;2.65;1.00;;;;;;;;;;4175980;28;20048;-40
2022/10/21 07:23:07;;;;;;;5.10;0.95;;;;;;;;;;4180908;28;20048;-42
2022/10/21 07:25:09;;;;;;;1.52;0.68;;;;;;;;;;4173767;28;20740;-43
2022/10/21 07:27:10;;;;;;;5.35;0.93;;;;;;;;;;4186355;28;20055;-43
2022/10/21 07:29:11;;;;;;;2.88;0.63;;;;;;;;;;4185618;28;20418;-45
2022/10/21 07:31:14;;;;;;;2.97;0.70;;;;;;;;;;4185971;28;20138;-40
2022/10/21 07:33:15;;;;;;;2.25;0.73;;;;;;;;;;4188031;28;20052;-40
2022/10/21 07:35:17;;;;;;;1.92;0.68;;;;;;;;;;4180657;28;20056;-41
2022/10/21 07:37:18;;;;;;;1.48;0.80;;;;;;;;;;4167293;28;20138;-40
2022/10/21 07:39:24;;;;;;;2.35;0.82;;;;;;;;;;4184674;28;20052;-44
2022/10/21 07:41:32;;;;;;;2.53;0.60;;;;;;;;;;4178462;28;20091;-43
2022/10/21 07:43:33;;;;;;;4.35;1.17;;;;;;;;;;4180042;28;20045;-46
2022/10/21 07:45:39;;;;;;;5.72;0.90;;;;;;;;;;4172215;28;20056;-44
2022/10/21 07:47:41;;;;;;;2.55;0.70;;;;;;;;;;4170594;28;20108;-44
2022/10/21 07:49:42;;;;;;;1.60;0.60;;;;;;;;;;4168061;28;20099;-46
2022/10/21 07:51:49;;;;;;;2.80;0.90;;;;;;;;;;4164457;28;20052;-41
2022/10/21 07:53:54;;;;;;;3.95;0.95;;;;;;;;;;4167121;28;20162;-45
2022/10/21 07:56:16;;;;;;;1.77;0.75;;;;;;;;;;4166039;28;20079;-46
2022/10/21 07:58:17;;;;;;;3.15;0.90;;;;;;;;;;4173025;28;20060;-46
2022/10/21 08:00:18;;;;;;;3.08;0.80;;;;;;;;;;4173996;28;20075;-43
2022/10/21 08:02:19;;;;;;;1.52;0.80;;;;;;;;;;4159102;28;20485;-46
2022/10/21 08:04:23;;;;;;;1.88;0.73;;;;;;;;;;4168493;28;20461;-44
2022/10/21 08:06:26;;;;;;;1.58;0.95;;;;;;;;;;4180242;28;20150;-45
2022/10/21 08:08:27;;;;;;;3.00;0.80;;;;;;;;;;4182418;28;20105;-46
2022/10/21 08:10:28;;;;;;;2.35;0.85;;;;;;;;;;4173353;28;20174;-46
2022/10/21 08:12:29;;;;;;;4.93;0.93;;;;;;;;;;4172333;28;20101;-46
2022/10/21 08:14:30;;;;;;;2.95;0.85;;;;;;;;;;4182338;28;20281;-48
2022/10/21 08:16:32;;;;;;;1.70;0.77;;;;;;;;;;4179981;28;20369;-48
2022/10/21 08:18:33;;;;;;;2.65;1.17;;;;;;;;;;4179494;28;20184;-41
2022/10/21 08:20:42;;;;;;;5.10;0.90;;;;;;;;;;4182544;28;20562;-42
2022/10/21 08:22:44;;;;;;;3.95;0.90;;;;;;;;;;4179062;28;20423;-46
2022/10/21 08:24:45;;;;;;;5.93;0.70;;;;;;;;;;4159880;28;20147;-48
2022/10/21 08:26:46;;;;;;;1.10;0.57;;;;;;;;;;4180060;28;20063;-44
2022/10/21 08:28:48;;;;;;;1.10;0.60;;;;;;;;;;4167312;28;20099;-44
2022/10/21 08:30:50;;;;;;;1.55;0.80;;;;;;;;;;4171061;28;20105;-43
2022/10/21 08:32:51;;;;;;;2.40;0.77;;;;;;;;;;4174262;28;20538;-44
2022/10/21 08:34:52;;;;;;;1.70;0.75;;;;;;;;;;4183257;28;20105;-46
2022/10/21 08:36:54;;;;;;;1.15;0.60;;;;;;;;;;4182473;28;20063;-44
2022/10/21 08:38:57;;;;;;;1.55;0.68;;;;;;;;;;4182365;28;20106;-44
2022/10/21 08:40:59;;;;;;;0.98;0.68;;;;;;;;;;4180614;28;20096;-46
2022/10/21 08:43:12;;;;;;;2.00;0.50;;;;;;;;;;4179913;28;20113;-44
2022/10/21 08:45:44;;;;;;;6.70;0.70;;;;;;;;;;4176934;28;20106;-47
2022/10/21 08:47:49;;;;;;;2.90;0.60;;;;;;;;;;4167358;28;20061;-43
2022/10/21 08:50:00;;;;;;;0.77;0.30;;;;;;;;;;4166653;28;20067;-42
2022/10/21 08:52:04;;;;;;;1.65;0.40;;;;;;;;;;4175747;28;20055;-43
2022/10/21 08:54:13;;;;;;;2.58;0.40;;;;;;;;;;4175234;28;20850;-42
2022/10/21 08:56:15;;;;;;;1.40;0.40;;;;;;;;;;4168820;28;21047;-41
2022/10/21 08:58:21;;;;;;;1.20;0.55;;;;;;;;;;4173940;28;20052;-41
2022/10/21 09:00:24;;;;;;;1.58;0.50;;;;;;;;;;4189147;28;20434;-43
2022/10/21 09:02:47;;;;;;;0.88;0.60;;;;;;;;;;4167479;28;20057;-44
2022/10/21 09:05:09;;;;;;;2.17;0.50;;;;;;;;;;4180519;28;20056;-44
2022/10/21 09:07:13;;;;;;;1.70;0.60;;;;;;;;;;4178804;28;20060;-43
2022/10/21 09:09:35;;;;;;;1.20;0.60;;;;;;;;;;4178701;28;20374;-43
2022/10/21 09:11:55;;;;;;;0.80;0.38;;;;;;;;;;4176151;28;20124;-44
2022/10/21 09:14:27;;;;;;;0.82;0.30;;;;;;;;;;4182077;28;20114;-45
2022/10/21 09:16:39;;;;;;;0.52;0.47;;;;;;;;;;4171111;28;20337;-42
2022/10/21 09:18:52;;;;;;;2.22;0.40;;;;;;;;;;4172169;28;20086;-42
2022/10/21 09:21:05;;;;;;;1.15;0.52;;;;;;;;;;4176412;28;20048;-42
2022/10/21 09:23:43;;;;;;;0.90;0.30;;;;;;;;;;4178190;28;20506;-44
2022/10/21 09:25:58;;;;;;;3.13;0.40;;;;;;;;;;4175595;28;20395;-44
2022/10/21 09:28:09;;;;;;;1.88;0.30;;;;;;;;;;4178480;28;20102;-43
2022/10/21 09:30:16;;;;;;;0.50;0.30;;;;;;;;;;4167763;28;20877;-41
2022/10/21 09:32:30;;;;;;;4.03;0.40;;;;;;;;;;4176469;28;20057;-40
2022/10/21 09:34:44;;;;;;;3.95;0.70;;;;;;;;;;4179388;28;20049;-42
2022/10/21 09:36:47;;;;;;;7.00;0.80;;;;;;;;;;4165815;28;20056;-42
2022/10/21 09:38:56;;;;;;;1.67;0.50;;;;;;;;;;4168520;28;20083;-42
2022/10/21 09:41:02;;;;;;;2.28;0.40;;;;;;;;;;4175775;28;20121;-43
2022/10/21 09:43:04;;;;;;;0.85;0.30;;;;;;;;;;4171559;28;20066;-43
2022/10/21 09:45:15;;;;;;;1.85;0.50;;;;;;;;;;4184002;28;20071;-41
2022/10/21 09:47:19;;;;;;;0.95;0.45;;;;;;;;;;4170145;28;20442;-43
2022/10/21 09:49:29;;;;;;;1.33;0.52;;;;;;;;;;4168938;28;20052;-43
2022/10/21 09:51:49;;;;;;;1.65;0.30;;;;;;;;;;4185161;28;20108;-44
2022/10/21 09:53:54;;;;;;;0.40;0.30;;;;;;;;;;4176093;28;20692;-41
2022/10/21 09:56:15;;;;;;;6.55;0.85;;;;;;;;;;4184484;28;20315;-44
2022/10/21 09:58:28;;;;;;;0.38;0.32;;;;;;;;;;4176918;28;20052;-42
2022/10/21 10:00:48;;;;;;;1.27;0.30;;;;;;;;;;4163015;28;20166;-42
2022/10/21 10:02:50;;;;;;;2.00;0.30;;;;;;;;;;4168901;28;21067;-42
2022/10/21 10:04:51;;;;;;;0.55;0.30;;;;;;;;;;4173965;28;20104;-41
2022/10/21 10:06:53;;;;;;;0.35;0.32;;;;;;;;;;4175665;28;20068;-41
2022/10/21 10:09:14;;;;;;;0.85;0.30;;;;;;;;;;4176768;28;20052;-42
2022/10/21 10:11:17;;;;;;;2.25;0.47;;;;;;;;;;4176763;28;20053;-41
2022/10/21 10:13:19;;;;;;;2.95;0.30;;;;;;;;;;4182378;28;20052;-42
2022/10/21 10:15:24;;;;;;;1.88;0.25;;;;;;;;;;4172289;28;20119;-41
2022/10/21 10:17:37;;;;;;;1.48;0.90;;;;;;;;;;4182167;28;20106;-42
2022/10/21 10:19:38;;;;;;;0.73;0.20;;;;;;;;;;4175291;28;20166;-42
2022/10/21 10:21:40;;;;;;;1.75;0.38;;;;;;;;;;4185117;28;20113;-42
2022/10/21 10:23:53;;;;;;;1.42;0.30;;;;;;;;;;4179080;28;20122;-41
2022/10/21 10:25:54;;;;;;;1.25;0.50;;;;;;;;;;4161547;28;20056;-41
2022/10/21 10:28:00;;;;;;;0.75;0.28;;;;;;;;;;4177753;28;20060;-41
2022/10/21 10:30:02;;;;;;;0.77;0.32;;;;;;;;;;4174964;28;20110;-41
2022/10/21 10:32:10;;;;;;;1.75;0.25;;;;;;;;;;4178382;28;20485;-42
2022/10/21 10:34:24;;;;;;;0.50;0.50;;;;;;;;;;4170345;28;21250;-41
2022/10/21 10:36:31;;;;;;;2.55;0.50;;;;;;;;;;4176764;28;20068;-42
2022/10/21 10:38:36;;;;;;;0.40;0.30;;;;;;;;;;4174145;28;20052;-41
2022/10/21 10:40:40;;;;;;;2.67;0.40;;;;;;;;;;4186836;28;20043;-43
2022/10/21 10:42:43;;;;;;;0.90;0.40;;;;;;;;;;4187637;28;20109;-41
2022/10/21 10:44:44;;;;;;;2.45;0.60;;;;;;;;;;4174439;28;20187;-42
2022/10/21 10:46:52;;;;;;;0.40;0.22;;;;;;;;;;4180926;28;20060;-42
2022/10/21 10:48:56;;;;;;;0.77;0.40;;;;;;;;;;4175347;28;20418;-41
2022/10/21 10:50:57;;;;;;;0.93;0.55;;;;;;;;;;4175333;28;20057;-42
2022/10/21 10:53:22;;;;;;;0.95;0.50;;;;;;;;;;4179461;28;20552;-43
2022/10/21 10:55:25;;;;;;;2.25;0.50;;;;;;;;;;4171968;28;20057;-42
2022/10/21 10:57:27;;;;;;;1.23;0.40;;;;;;;;;;4176254;28;20061;-42
2022/10/21 10:59:39;;;;;;;0.82;0.30;;;;;;;;;;4184133;28;20072;-42
2022/10/21 11:01:50;;;;;;;1.75;0.38;;;;;;;;;;4145721;28;20638;-43
2022/10/21 11:03:55;;;;;;;1.10;0.40;;;;;;;;;;4179003;28;20504;-43
2022/10/21 11:06:08;;;;;;;1.65;0.40;;;;;;;;;;4175259;28;20052;-42
2022/10/21 11:08:26;;;;;;;2.45;0.30;;;;;;;;;;4169115;28;20102;-42
2022/10/21 11:10:52;;;;;;;0.77;0.35;;;;;;;;;;4180103;28;20091;-42
2022/10/21 11:12:53;;;;;;;0.98;0.50;;;;;;;;;;4172390;28;20064;-41
2022/10/21 11:14:58;;;;;;;0.90;0.40;;;;;;;;;;4173897;28;20778;-43
2022/10/21 11:17:06;;;;;;;0.57;0.40;;;;;;;;;;4173449;28;20061;-42
2022/10/21 11:19:29;;;;;;;0.90;0.50;;;;;;;;;;4183211;28;20367;-43
2022/10/21 11:21:51;;;;;;;0.82;0.60;;;;;;;;;;4181021;28;20114;-41
2022/10/21 11:24:08;;;;;;;0.85;0.38;;;;;;;;;;4181307;28;20082;-42
2022/10/21 11:26:24;;;;;;;1.10;0.40;;;;;;;;;;4180587;28;20048;-43
2022/10/21 11:28:31;;;;;;;0.82;0.50;;;;;;;;;;4180657;28;20542;-42
2022/10/21 11:30:48;;;;;;;0.57;0.30;;;;;;;;;;4175803;28;20056;-43
2022/10/21 11:33:16;;;;;;;0.65;0.40;;;;;;;;;;4159098;28;20057;-43
2022/10/21 11:35:33;;;;;;;1.00;0.47;;;;;;;;;;4186684;28;20063;-43
2022/10/21 11:37:55;;;;;;;0.63;0.40;;;;;;;;;;4191705;28;20048;-44
2022/10/21 11:40:01;;;;;;;0.70;0.30;;;;;;;;;;4185059;28;20102;-43
2022/10/21 11:42:18;;;;;;;3.55;0.50;;;;;;;;;;4177537;28;20059;-42
2022/10/21 11:44:53;;;;;;;0.68;0.50;;;;;;;;;;4186425;28;20056;-41
2022/10/21 11:46:57;;;;;;;1.52;0.50;;;;;;;;;;4179221;28;20061;-41
2022/10/21 11:49:22;;;;;;;0.50;0.30;;;;;;;;;;4181355;28;20154;-41
2022/10/21 11:51:33;;;;;;;0.50;0.30;;;;;;;;;;4173404;28;20056;-41
2022/10/21 11:53:54;;;;;;;0.20;0.20;;;;;;;;;;4164940;28;20420;-41
2022/10/21 11:56:49;;;;;;;0.75;0.20;;;;;;;;;;4176698;28;20052;-41
2022/10/21 11:59:07;;;;;;;0.68;0.20;;;;;;;;;;4158735;28;20060;-43
2022/10/21 12:01:11;;;;;;;0.32;0.30;;;;;;;;;;4174609;28;20404;-42
2022/10/21 12:03:27;;;;;;;0.63;0.20;;;;;;;;;;4183190;28;20364;-44
2022/10/21 12:05:31;;;;;;;4.07;0.40;;;;;;;;;;4182331;28;20173;-42
2022/10/21 12:07:56;;;;;;;0.30;0.20;;;;;;;;;;4172929;28;20049;-42
2022/10/21 12:10:08;;;;;;;3.20;0.32;;;;;;;;;;4179160;28;20473;-42
2022/10/21 12:12:12;;;;;;;1.10;0.32;;;;;;;;;;4172154;28;20056;-41
2022/10/21 12:14:27;;;;;;;0.82;0.40;;;;;;;;;;4180927;28;20060;-44
2022/10/21 12:16:31;;;;;;;1.13;0.25;;;;;;;;;;4175445;28;22265;-42
2022/10/21 12:18:41;;;;;;;0.20;0.20;;;;;;;;;;4180041;28;20099;-41
2022/10/21 12:20:44;;;;;;;0.32;0.25;;;;;;;;;;4174079;28;20431;-42
2022/10/21 12:22:46;;;;;;;0.60;0.30;;;;;;;;;;4183057;28;20093;-41
2022/10/21 12:25:08;;;;;;;0.55;0.30;;;;;;;;;;4178385;28;20510;-42
2022/10/21 12:27:24;;;;;;;0.95;0.20;;;;;;;;;;4181833;28;20474;-41
2022/10/21 12:29:56;;;;;;;1.08;0.50;;;;;;;;;;4184445;28;20495;-41
2022/10/21 12:32:28;;;;;;;1.92;0.52;;;;;;;;;;4175852;28;20057;-41
2022/10/21 12:34:29;;;;;;;0.73;0.32;;;;;;;;;;4185173;28;20075;-41